Time;durP1;ratioP1;P1;durP2;ratioP2;P2;SDS_P1;SDS_P2;PMS_P1;PMS_P2;Temp;Humidity;BMP_temperature;BMP_pressure;BME280_temperature;BME280_humidity;BME280_pressure;Samples;Min_cycle;Max_cycle;Signal;HPM_P1;HPM_P2
2022/04/14 00:00:53;;;;;;;7.25;3.92;;;12.80;99.90;;;;;;4944218;29;20036;-79
2022/04/14 00:03:19;;;;;;;5.95;3.92;;;12.70;99.90;;;;;;4953592;29;20016;-77
2022/04/14 00:05:45;;;;;;;8.18;3.83;;;12.60;99.90;;;;;;4960529;28;20031;-78
2022/04/14 00:08:11;;;;;;;10.30;5.30;;;12.70;99.90;;;;;;4949523;29;20078;-78
2022/04/14 00:10:36;;;;;;;9.68;4.28;;;12.70;99.90;;;;;;4950305;29;20446;-78
2022/04/14 00:13:02;;;;;;;9.00;4.63;;;12.60;99.90;;;;;;4947271;29;20038;-78
2022/04/14 00:15:28;;;;;;;9.70;4.30;;;12.60;99.90;;;;;;4934153;29;20023;-77
2022/04/14 00:17:54;;;;;;;5.57;4.82;;;12.50;99.90;;;;;;4951475;29;20133;-77
2022/04/14 00:20:20;;;;;;;7.10;5.30;;;12.50;99.90;;;;;;4944041;29;20031;-77
2022/04/14 00:22:45;;;;;;;9.80;5.03;;;12.50;99.90;;;;;;4954011;28;20019;-77
2022/04/14 00:25:11;;;;;;;6.57;5.40;;;12.50;99.90;;;;;;4947152;29;20517;-77
2022/04/14 00:27:38;;;;;;;6.95;4.32;;;12.60;99.90;;;;;;4963037;28;20033;-77
2022/04/14 00:30:05;;;;;;;7.22;4.15;;;12.60;99.90;;;;;;4929520;29;20027;-77
2022/04/14 00:32:31;;;;;;;5.30;4.13;;;12.50;99.90;;;;;;4949925;29;20030;-78
2022/04/14 00:34:57;;;;;;;5.68;4.13;;;12.50;99.90;;;;;;4942602;28;21124;-78
2022/04/14 00:37:23;;;;;;;10.32;4.22;;;12.40;99.90;;;;;;4946305;29;20027;-77
2022/04/14 00:39:50;;;;;;;10.73;4.53;;;12.40;99.90;;;;;;4947874;29;20033;-77
2022/04/14 00:42:16;;;;;;;8.20;3.90;;;12.40;99.90;;;;;;4952073;29;20019;-77
2022/04/14 00:44:42;;;;;;;7.28;4.30;;;12.40;99.90;;;;;;4952662;29;20046;-77
2022/04/14 00:47:08;;;;;;;10.05;4.72;;;12.30;99.90;;;;;;4937055;29;20024;-78
2022/04/14 00:49:34;;;;;;;5.05;4.43;;;12.20;99.90;;;;;;4931911;29;20478;-78
2022/04/14 00:52:01;;;;;;;9.05;4.57;;;12.20;99.90;;;;;;4942981;29;20058;-78
2022/04/14 00:54:28;;;;;;;6.80;4.80;;;12.10;99.90;;;;;;4929832;29;20045;-77
2022/04/14 00:56:55;;;;;;;9.15;4.55;;;12.10;99.90;;;;;;4946760;29;20028;-77
2022/04/14 00:59:21;;;;;;;5.03;3.90;;;12.00;99.90;;;;;;4953004;29;20019;-78
2022/04/14 01:01:47;;;;;;;10.77;4.90;;;12.00;99.90;;;;;;4947566;29;20020;-77
2022/04/14 01:04:12;;;;;;;8.48;4.22;;;12.00;99.90;;;;;;4947213;29;20106;-78
2022/04/14 01:06:39;;;;;;;9.15;4.60;;;12.00;99.90;;;;;;4957336;28;20485;-77
2022/04/14 01:09:19;;;;;;;5.28;4.45;;;12.00;99.90;;;;;;4952830;29;20045;-78
2022/04/14 01:11:53;;;;;;;9.85;4.97;;;12.00;99.90;;;;;;4942519;29;20394;-78
2022/04/14 01:14:34;;;;;;;7.68;4.88;;;12.00;99.90;;;;;;4939312;29;20031;-78
2022/04/14 01:17:06;;;;;;;7.03;3.97;;;12.00;99.90;;;;;;4947839;29;20115;-78
2022/04/14 01:19:32;;;;;;;6.18;4.75;;;12.00;99.90;;;;;;4932565;29;20398;-78
2022/04/14 01:22:25;;;;;;;6.32;4.90;;;11.90;99.90;;;;;;4939250;29;20034;-78
2022/04/14 01:24:56;;;;;;;12.15;4.97;;;11.90;99.90;;;;;;4947426;29;20064;-78
2022/04/14 01:27:25;;;;;;;8.30;4.97;;;11.90;99.90;;;;;;4950426;29;20094;-77
2022/04/14 01:29:52;;;;;;;7.45;4.47;;;11.90;99.90;;;;;;4943551;29;20034;-78
2022/04/14 01:32:19;;;;;;;6.28;4.03;;;11.90;99.90;;;;;;4950892;29;20032;-78
2022/04/14 01:34:44;;;;;;;15.65;4.22;;;11.90;99.90;;;;;;4946974;29;20024;-78
2022/04/14 01:37:10;;;;;;;10.23;4.30;;;11.80;99.90;;;;;;4928787;29;20118;-78
2022/04/14 01:39:35;;;;;;;8.88;4.50;;;11.80;99.90;;;;;;4952530;29;20027;-77
2022/04/14 01:42:01;;;;;;;8.15;4.70;;;11.70;99.90;;;;;;4953916;28;20054;-77
2022/04/14 01:44:27;;;;;;;6.28;4.60;;;11.70;99.90;;;;;;4937148;29;20054;-78
2022/04/14 01:46:52;;;;;;;5.10;4.53;;;11.70;99.90;;;;;;4950078;29;20034;-78
2022/04/14 01:49:18;;;;;;;8.43;4.90;;;11.70;99.90;;;;;;4966832;28;20027;-78
2022/04/14 01:51:43;;;;;;;10.85;3.90;;;11.70;99.90;;;;;;4952466;29;20027;-78
2022/04/14 01:54:09;;;;;;;7.38;4.55;;;11.70;99.90;;;;;;4950165;29;20114;-78
2022/04/14 01:56:35;;;;;;;8.00;4.55;;;11.70;99.90;;;;;;4957696;29;20023;-78
2022/04/14 01:59:00;;;;;;;9.05;4.57;;;11.60;99.90;;;;;;4950566;29;20028;-78
2022/04/14 02:01:26;;;;;;;9.65;4.40;;;11.50;99.90;;;;;;4960809;28;20019;-78
2022/04/14 02:03:52;;;;;;;6.88;4.43;;;11.50;99.90;;;;;;4951007;29;20015;-78
2022/04/14 02:06:18;;;;;;;10.02;4.30;;;11.50;99.90;;;;;;4954047;29;20385;-78
2022/04/14 02:08:44;;;;;;;7.63;4.28;;;11.40;99.90;;;;;;4945920;29;20159;-78
2022/04/14 02:11:13;;;;;;;7.25;4.55;;;11.30;99.90;;;;;;4955784;29;20127;-77
2022/04/14 02:13:38;;;;;;;5.28;4.47;;;11.30;99.90;;;;;;4952274;29;20024;-78
2022/04/14 02:16:04;;;;;;;9.85;5.72;;;11.30;99.90;;;;;;4947742;29;20082;-77
2022/04/14 02:18:30;;;;;;;11.77;4.72;;;11.30;99.90;;;;;;4934438;29;20027;-79
2022/04/14 02:20:56;;;;;;;7.50;5.50;;;11.30;99.90;;;;;;4957554;28;20505;-78
2022/04/14 02:23:22;;;;;;;10.43;6.03;;;11.30;99.90;;;;;;4953971;29;20497;-77
2022/04/14 02:25:48;;;;;;;9.05;5.40;;;11.30;99.90;;;;;;4928048;29;20019;-78
2022/04/14 02:28:14;;;;;;;10.90;6.47;;;11.30;99.90;;;;;;4953435;29;20497;-77
2022/04/14 02:30:40;;;;;;;10.13;5.65;;;11.40;99.90;;;;;;4934345;29;20050;-78
2022/04/14 02:33:06;;;;;;;8.90;5.28;;;11.30;99.90;;;;;;4947903;29;20031;-78
2022/04/14 02:35:31;;;;;;;7.30;5.40;;;11.30;99.90;;;;;;4932970;29;20450;-79
2022/04/14 02:37:57;;;;;;;8.88;5.13;;;11.20;99.90;;;;;;4935425;29;20054;-78
2022/04/14 02:40:26;;;;;;;8.43;5.43;;;11.20;99.90;;;;;;4952613;28;20015;-78
2022/04/14 02:42:54;;;;;;;5.97;4.93;;;11.10;99.90;;;;;;4949927;29;20028;-78
2022/04/14 02:45:20;;;;;;;6.28;5.35;;;11.20;99.90;;;;;;4953183;29;20024;-78
2022/04/14 02:47:46;;;;;;;9.20;5.22;;;11.10;99.90;;;;;;4939792;29;20485;-77
2022/04/14 02:50:11;;;;;;;8.10;5.45;;;11.10;99.90;;;;;;4946493;29;20042;-78
2022/04/14 02:52:37;;;;;;;7.22;5.25;;;11.10;99.90;;;;;;4945140;29;20050;-78
2022/04/14 02:55:03;;;;;;;8.35;5.07;;;11.10;99.90;;;;;;4954129;29;20027;-78
2022/04/14 02:57:30;;;;;;;10.80;5.45;;;11.10;99.90;;;;;;4947729;28;20400;-78
2022/04/14 02:59:56;;;;;;;9.15;4.85;;;11.00;99.90;;;;;;4948674;29;20397;-78
2022/04/14 03:02:23;;;;;;;10.18;6.68;;;11.00;99.90;;;;;;4949809;29;20087;-78
2022/04/14 03:04:48;;;;;;;8.35;6.35;;;11.00;99.90;;;;;;4949351;29;20429;-77
2022/04/14 03:07:14;;;;;;;9.55;6.15;;;11.10;99.90;;;;;;4933635;29;20023;-78
2022/04/14 03:09:40;;;;;;;8.00;6.15;;;11.10;99.90;;;;;;4949494;29;20074;-78
2022/04/14 03:12:06;;;;;;;11.60;6.20;;;11.10;99.90;;;;;;4931517;29;20106;-78
2022/04/14 03:14:31;;;;;;;11.18;5.82;;;11.10;99.90;;;;;;4951613;29;20023;-77
2022/04/14 03:16:57;;;;;;;9.50;6.25;;;11.10;99.90;;;;;;4931559;29;20053;-77
2022/04/14 03:19:23;;;;;;;9.45;6.18;;;11.10;99.90;;;;;;4963492;28;20516;-78
2022/04/14 03:21:48;;;;;;;9.05;6.60;;;11.00;99.90;;;;;;4951123;29;20398;-78
2022/04/14 03:24:14;;;;;;;15.13;6.03;;;11.00;99.90;;;;;;4962313;28;20117;-78
2022/04/14 03:26:40;;;;;;;9.68;5.43;;;11.00;99.90;;;;;;4960251;28;20023;-77
2022/04/14 03:29:05;;;;;;;10.95;6.13;;;10.90;99.90;;;;;;4950931;29;20453;-78
2022/04/14 03:31:31;;;;;;;15.98;5.82;;;10.90;99.90;;;;;;4958157;28;20019;-79
2022/04/14 03:33:57;;;;;;;10.07;6.28;;;10.90;99.90;;;;;;4954483;29;20028;-78
2022/04/14 03:36:22;;;;;;;9.35;5.97;;;10.80;99.90;;;;;;4944237;29;20249;-77
2022/04/14 03:38:48;;;;;;;10.93;5.88;;;10.80;99.90;;;;;;4950350;29;20089;-78
2022/04/14 03:41:13;;;;;;;13.43;7.15;;;10.80;99.90;;;;;;4954911;28;20500;-78
2022/04/14 03:43:39;;;;;;;9.55;5.93;;;10.80;99.90;;;;;;4932517;29;20031;-78
2022/04/14 03:46:05;;;;;;;14.25;6.78;;;10.80;99.90;;;;;;4952174;29;20398;-79
2022/04/14 03:48:31;;;;;;;9.77;5.95;;;10.70;99.90;;;;;;4950416;29;20022;-78
2022/04/14 03:50:56;;;;;;;9.95;6.32;;;10.70;99.90;;;;;;4953408;29;20470;-77
2022/04/14 03:53:22;;;;;;;9.07;6.43;;;10.60;99.90;;;;;;4943846;29;20020;-77
2022/04/14 03:55:48;;;;;;;7.20;5.80;;;10.60;99.90;;;;;;4950831;29;20015;-78
2022/04/14 03:58:14;;;;;;;13.70;7.32;;;10.70;99.90;;;;;;4929997;29;20558;-78
2022/04/14 04:00:44;;;;;;;12.55;6.47;;;10.60;99.90;;;;;;4946914;29;20023;-78
2022/04/14 04:03:11;;;;;;;10.43;6.40;;;10.60;99.90;;;;;;4947506;29;20070;-79
2022/04/14 04:05:37;;;;;;;12.13;6.68;;;10.70;99.90;;;;;;4948330;29;20108;-78
2022/04/14 04:08:04;;;;;;;8.85;6.57;;;10.60;99.90;;;;;;4927557;29;20043;-78
2022/04/14 04:10:29;;;;;;;13.38;6.85;;;10.50;99.90;;;;;;4946829;28;20027;-78
2022/04/14 04:12:55;;;;;;;12.90;6.95;;;10.50;99.90;;;;;;4937459;29;20512;-78
2022/04/14 04:15:20;;;;;;;9.50;5.80;;;10.50;99.90;;;;;;4948740;29;20412;-77
2022/04/14 04:17:46;;;;;;;15.15;7.00;;;10.40;99.90;;;;;;4939890;28;20065;-77
2022/04/14 04:20:12;;;;;;;10.02;6.18;;;10.40;99.90;;;;;;4931563;28;20458;-78
2022/04/14 04:22:38;;;;;;;10.52;6.00;;;10.30;99.90;;;;;;4932245;29;20020;-78
2022/04/14 04:25:04;;;;;;;8.27;6.78;;;10.30;99.90;;;;;;4945156;29;20159;-78
2022/04/14 04:27:30;;;;;;;9.18;6.85;;;10.30;99.90;;;;;;4950525;29;20390;-78
2022/04/14 04:29:56;;;;;;;10.45;6.10;;;10.30;99.90;;;;;;4933627;29;20035;-78
2022/04/14 04:32:21;;;;;;;12.32;6.75;;;10.30;99.90;;;;;;4943315;29;20023;-78
2022/04/14 04:34:47;;;;;;;11.77;8.02;;;10.30;99.90;;;;;;4948645;29;20042;-78
2022/04/14 04:37:13;;;;;;;15.73;6.53;;;10.30;99.90;;;;;;4946073;29;20027;-79
2022/04/14 04:39:38;;;;;;;14.57;6.93;;;10.30;99.90;;;;;;4952269;28;20023;-79
2022/04/14 04:42:04;;;;;;;16.58;6.90;;;10.30;99.90;;;;;;4945034;29;20050;-78
2022/04/14 04:44:29;;;;;;;13.05;6.82;;;10.30;99.90;;;;;;4946272;29;20023;-78
2022/04/14 04:46:55;;;;;;;16.50;6.75;;;10.40;99.90;;;;;;4929808;29;20059;-77
2022/04/14 04:49:20;;;;;;;14.63;7.10;;;10.30;99.90;;;;;;4936981;29;20027;-78
2022/04/14 04:51:46;;;;;;;18.30;7.05;;;10.40;99.90;;;;;;4946688;29;20081;-78
2022/04/14 04:54:11;;;;;;;12.10;7.00;;;10.50;99.90;;;;;;4946127;29;20028;-78
2022/04/14 04:56:37;;;;;;;14.05;6.03;;;10.60;99.90;;;;;;4931361;29;20030;-78
2022/04/14 04:59:02;;;;;;;10.10;6.60;;;10.60;99.90;;;;;;4929141;29;20071;-78
2022/04/14 05:01:28;;;;;;;12.48;6.78;;;10.70;99.90;;;;;;4948999;29;20392;-78
2022/04/14 05:03:54;;;;;;;10.32;6.75;;;11.00;99.90;;;;;;4954569;29;20023;-78
2022/04/14 05:06:20;;;;;;;19.48;8.40;;;11.10;99.90;;;;;;4943031;29;20024;-78
2022/04/14 05:08:46;;;;;;;9.85;6.78;;;11.20;99.90;;;;;;4948445;29;20094;-78
2022/04/14 05:11:13;;;;;;;11.20;6.80;;;11.30;99.90;;;;;;4944399;29;20027;-79
2022/04/14 05:13:38;;;;;;;9.77;6.93;;;11.40;99.90;;;;;;4948966;29;20479;-77
2022/04/14 05:16:06;;;;;;;11.80;6.47;;;11.50;99.90;;;;;;4928939;29;20156;-78
2022/04/14 05:18:32;;;;;;;13.63;6.80;;;11.70;99.90;;;;;;4939226;29;20023;-79
2022/04/14 05:20:57;;;;;;;13.00;6.82;;;11.90;99.90;;;;;;4953495;28;20030;-78
2022/04/14 05:23:23;;;;;;;15.80;8.02;;;12.00;99.90;;;;;;4947413;29;20541;-78
2022/04/14 05:25:48;;;;;;;15.32;8.75;;;12.20;99.90;;;;;;4946210;29;20031;-78
2022/04/14 05:28:14;;;;;;;18.40;6.60;;;12.40;99.90;;;;;;4950417;29;20027;-77
2022/04/14 05:30:40;;;;;;;10.18;6.85;;;12.50;99.90;;;;;;4946685;29;20038;-78
2022/04/14 05:33:10;;;;;;;10.65;6.53;;;12.80;99.90;;;;;;4946365;29;20058;-78
2022/04/14 05:35:39;;;;;;;13.48;6.90;;;13.00;99.90;;;;;;4948640;29;20030;-78
2022/04/14 05:38:05;;;;;;;9.75;5.85;;;13.30;99.90;;;;;;4933950;29;20031;-78
2022/04/14 05:40:31;;;;;;;11.68;5.78;;;13.30;99.90;;;;;;4953820;28;20102;-78
2022/04/14 05:42:57;;;;;;;12.80;7.63;;;13.40;99.90;;;;;;4928747;29;20462;-79
2022/04/14 05:45:22;;;;;;;9.52;6.32;;;13.50;99.90;;;;;;4950398;29;20020;-78
2022/04/14 05:47:48;;;;;;;10.85;6.63;;;13.60;99.90;;;;;;4942906;29;20028;-78
2022/04/14 05:50:14;;;;;;;9.75;6.30;;;13.90;99.90;;;;;;4934799;29;20038;-77
2022/04/14 05:52:40;;;;;;;10.18;5.72;;;14.30;99.90;;;;;;4947529;29;20392;-78
2022/04/14 05:55:06;;;;;;;10.10;5.80;;;14.40;99.90;;;;;;4946273;29;20588;-78
2022/04/14 05:57:31;;;;;;;18.75;6.53;;;14.40;99.90;;;;;;4942281;29;20111;-78
2022/04/14 05:59:57;;;;;;;13.02;7.45;;;14.30;99.90;;;;;;4952815;29;20110;-77
2022/04/14 06:02:23;;;;;;;13.32;6.35;;;13.90;99.90;;;;;;4929467;29;20026;-78
2022/04/14 06:04:49;;;;;;;10.45;6.32;;;13.90;99.90;;;;;;4935696;29;20031;-78
2022/04/14 06:07:14;;;;;;;12.18;7.30;;;13.70;99.90;;;;;;4946218;29;20066;-78
2022/04/14 06:09:40;;;;;;;20.45;6.78;;;13.70;99.90;;;;;;4945660;29;20060;-78
2022/04/14 06:12:06;;;;;;;9.95;6.53;;;13.80;99.90;;;;;;4945700;29;20023;-78
2022/04/14 06:14:33;;;;;;;14.32;7.03;;;13.90;99.90;;;;;;4936595;29;20023;-78
2022/04/14 06:16:59;;;;;;;14.35;7.20;;;14.10;99.90;;;;;;4939355;29;20031;-78
2022/04/14 06:19:25;;;;;;;16.30;7.88;;;14.10;99.90;;;;;;4949978;29;20379;-77
2022/04/14 06:21:50;;;;;;;15.98;7.53;;;14.20;99.90;;;;;;4942803;29;20660;-77
2022/04/14 06:24:16;;;;;;;13.27;8.18;;;14.10;99.90;;;;;;4946213;29;20477;-79
2022/04/14 06:26:42;;;;;;;17.38;7.60;;;14.40;99.90;;;;;;4959666;28;20023;-79
2022/04/14 06:29:07;;;;;;;12.20;9.07;;;14.50;99.90;;;;;;4952102;29;20042;-79
2022/04/14 06:31:35;;;;;;;15.57;9.60;;;14.80;99.90;;;;;;4946551;29;20027;-78
2022/04/14 06:34:02;;;;;;;21.40;14.30;;;14.90;99.90;;;;;;4951194;28;20026;-78
2022/04/14 06:36:27;;;;;;;26.92;19.23;;;15.10;99.90;;;;;;4938947;29;20117;-78
2022/04/14 06:38:53;;;;;;;31.48;21.13;;;15.00;99.90;;;;;;4955956;28;20059;-78
2022/04/14 06:41:18;;;;;;;26.50;21.60;;;15.00;99.90;;;;;;4962186;28;20403;-79
2022/04/14 06:43:45;;;;;;;24.58;20.20;;;15.00;99.90;;;;;;4933126;29;20023;-78
2022/04/14 06:46:11;;;;;;;27.00;19.67;;;15.40;99.90;;;;;;4947872;29;20070;-78
2022/04/14 06:48:36;;;;;;;28.33;19.52;;;15.30;99.90;;;;;;4945699;29;20023;-78
2022/04/14 06:51:02;;;;;;;28.33;18.85;;;15.30;99.90;;;;;;4954437;29;20028;-77
2022/04/14 06:53:28;;;;;;;25.65;20.33;;;15.20;99.90;;;;;;4945468;29;20113;-81
2022/04/14 06:55:53;;;;;;;22.08;18.15;;;15.30;99.90;;;;;;4954592;29;20498;-77
2022/04/14 06:58:20;;;;;;;24.70;20.08;;;15.40;99.90;;;;;;4928242;29;20016;-79
2022/04/14 07:00:46;;;;;;;27.42;19.10;;;15.50;99.90;;;;;;4953230;29;20102;-78
2022/04/14 07:03:12;;;;;;;23.60;18.20;;;15.60;99.90;;;;;;4930655;29;20463;-78
2022/04/14 07:05:37;;;;;;;24.75;18.52;;;15.70;99.90;;;;;;4934893;29;20077;-78
2022/04/14 07:08:03;;;;;;;20.23;17.65;;;15.90;99.90;;;;;;4948910;29;20039;-79
2022/04/14 07:10:29;;;;;;;20.38;17.95;;;16.20;99.90;;;;;;4952279;29;20035;-77
2022/04/14 07:12:55;;;;;;;20.15;17.83;;;16.10;99.90;;;;;;4932283;29;20086;-77
2022/04/14 07:15:21;;;;;;;26.92;17.30;;;16.10;99.90;;;;;;4948771;29;20102;-78
2022/04/14 07:17:47;;;;;;;25.10;18.35;;;16.20;99.90;;;;;;4960464;28;20098;-78
2022/04/14 07:20:13;;;;;;;21.75;16.65;;;16.30;99.90;;;;;;4947994;29;20024;-78
2022/04/14 07:22:50;;;;;;;21.38;15.85;;;16.30;99.90;;;;;;4949579;29;20033;-77
2022/04/14 07:25:16;;;;;;;26.13;18.20;;;16.10;99.90;;;;;;4952483;29;20580;-78
2022/04/14 07:27:43;;;;;;;21.63;17.30;;;16.20;99.90;;;;;;4945900;29;20028;-79
2022/04/14 07:30:09;;;;;;;18.75;16.33;;;16.30;99.90;;;;;;4953816;29;20612;-78
2022/04/14 07:32:36;;;;;;;25.25;17.23;;;16.30;99.90;;;;;;4945976;29;20454;-78
2022/04/14 07:35:03;;;;;;;19.83;17.27;;;16.70;99.90;;;;;;4938013;29;20411;-78
2022/04/14 07:37:30;;;;;;;19.48;16.52;;;16.60;99.90;;;;;;4956995;29;20027;-78
2022/04/14 07:39:56;;;;;;;18.73;15.25;;;16.60;99.90;;;;;;4956979;29;20019;-80
2022/04/14 07:42:21;;;;;;;19.15;16.65;;;16.50;99.90;;;;;;4932166;29;20015;-78
2022/04/14 07:44:47;;;;;;;18.58;16.02;;;16.40;99.90;;;;;;4956955;28;20042;-77
2022/04/14 07:47:13;;;;;;;18.02;16.13;;;16.50;99.90;;;;;;4933089;29;20413;-78
2022/04/14 07:49:39;;;;;;;20.95;15.57;;;16.60;99.90;;;;;;4931908;29;20038;-80
2022/04/14 07:52:05;;;;;;;22.23;15.98;;;16.40;99.90;;;;;;4950310;29;20134;-78
2022/04/14 07:54:34;;;;;;;22.98;15.77;;;16.50;99.90;;;;;;4956246;29;20019;-78
2022/04/14 07:57:00;;;;;;;20.38;15.55;;;16.50;99.90;;;;;;4933609;29;20639;-78
2022/04/14 07:59:26;;;;;;;19.38;15.95;;;17.00;99.90;;;;;;4931320;29;20090;-77
2022/04/14 08:01:51;;;;;;;18.20;15.82;;;17.50;99.90;;;;;;4932130;29;20064;-79
2022/04/14 08:04:17;;;;;;;18.58;15.05;;;17.70;99.90;;;;;;4954953;29;20057;-78
2022/04/14 08:06:42;;;;;;;21.80;15.35;;;17.30;99.90;;;;;;4933042;29;20027;-78
2022/04/14 08:09:08;;;;;;;21.38;15.93;;;17.30;99.90;;;;;;4952953;29;20129;-78
2022/04/14 08:11:34;;;;;;;18.08;16.08;;;17.40;99.90;;;;;;4950749;29;20024;-77
2022/04/14 08:13:59;;;;;;;20.17;16.65;;;17.40;99.90;;;;;;4945843;29;20042;-78
2022/04/14 08:16:26;;;;;;;17.20;15.07;;;17.10;99.90;;;;;;4962535;28;20034;-77
2022/04/14 08:18:51;;;;;;;22.25;16.15;;;17.20;99.90;;;;;;4950203;29;20111;-77
2022/04/14 08:21:17;;;;;;;24.92;15.43;;;17.00;99.90;;;;;;4937255;29;20066;-79
2022/04/14 08:23:42;;;;;;;19.50;16.38;;;17.10;99.90;;;;;;4951342;29;20077;-79
2022/04/14 08:26:08;;;;;;;20.40;16.65;;;17.20;99.90;;;;;;4947192;29;20054;-78
2022/04/14 08:28:35;;;;;;;18.77;16.80;;;17.20;99.90;;;;;;4949619;29;20042;-79
2022/04/14 08:31:02;;;;;;;22.17;16.50;;;17.10;99.90;;;;;;4939271;29;20535;-78
2022/04/14 08:33:28;;;;;;;17.88;16.05;;;17.20;99.90;;;;;;4949534;29;20054;-80
2022/04/14 08:35:53;;;;;;;22.25;17.75;;;17.50;99.90;;;;;;4955206;28;20470;-77
2022/04/14 08:38:20;;;;;;;17.85;15.48;;;17.90;99.90;;;;;;4962572;28;20114;-78
2022/04/14 08:40:47;;;;;;;19.05;16.52;;;18.00;99.90;;;;;;4949358;29;20015;-79
2022/04/14 08:43:17;;;;;;;20.83;15.73;;;17.90;99.90;;;;;;4955404;28;20411;-77
2022/04/14 08:45:50;;;;;;;21.10;15.40;;;17.90;99.90;;;;;;4954953;29;20055;-78
2022/04/14 08:48:16;;;;;;;21.42;14.38;;;17.60;99.90;;;;;;4948482;29;20054;-78
2022/04/14 08:50:44;;;;;;;16.13;14.48;;;17.80;99.90;;;;;;4936368;29;20442;-78
2022/04/14 08:53:10;;;;;;;21.83;16.30;;;17.60;99.90;;;;;;4947185;29;20031;-79
2022/04/14 08:55:40;;;;;;;18.73;15.50;;;17.90;99.90;;;;;;4945685;28;20076;-77
2022/04/14 08:58:11;;;;;;;18.38;15.75;;;18.00;99.90;;;;;;4931505;29;20033;-79
2022/04/14 09:00:37;;;;;;;18.20;16.02;;;17.70;99.90;;;;;;4929898;29;20023;-79
2022/04/14 09:03:03;;;;;;;19.52;15.45;;;17.90;99.90;;;;;;4936580;29;20020;-78
2022/04/14 09:05:29;;;;;;;18.60;14.68;;;18.50;99.90;;;;;;4947640;29;20392;-78
2022/04/14 09:07:54;;;;;;;17.60;15.75;;;18.70;99.90;;;;;;4948070;29;20039;-78
2022/04/14 09:10:20;;;;;;;15.98;14.30;;;18.30;99.90;;;;;;4948443;29;20037;-79
2022/04/14 09:12:48;;;;;;;18.27;14.75;;;18.20;99.90;;;;;;4948864;28;20482;-81
2022/04/14 09:15:15;;;;;;;16.65;14.35;;;18.00;99.90;;;;;;4955654;28;20023;-78
2022/04/14 09:17:40;;;;;;;16.88;14.02;;;18.00;99.90;;;;;;4932610;29;20379;-78
2022/04/14 09:20:37;;;;;;;18.60;15.93;;;18.00;99.90;;;;;;4954393;29;20047;-79
2022/04/14 09:23:23;;;;;;;21.40;16.02;;;18.10;99.90;;;;;;4929066;29;20179;-78
2022/04/14 09:25:51;;;;;;;20.83;14.23;;;18.60;99.90;;;;;;4930811;29;20028;-78
2022/04/14 09:28:18;;;;;;;22.25;14.25;;;18.90;99.90;;;;;;4932302;29;20023;-78
2022/04/14 09:31:02;;;;;;;17.55;14.93;;;18.90;99.90;;;;;;4948997;29;20047;-78
2022/04/14 09:33:28;;;;;;;21.00;15.43;;;18.80;99.90;;;;;;4952049;28;20098;-79
2022/04/14 09:36:16;;;;;;;16.83;14.95;;;18.70;99.90;;;;;;4952261;29;20453;-77
2022/04/14 09:38:53;;;;;;;15.88;14.27;;;18.90;99.90;;;;;;4948929;29;20027;-79
2022/04/14 09:41:33;;;;;;;23.67;15.48;;;18.60;99.90;;;;;;4946768;28;20024;-79
2022/04/14 09:44:01;;;;;;;19.47;14.93;;;18.70;99.90;;;;;;4949201;29;20031;-78
2022/04/14 09:46:28;;;;;;;16.13;14.30;;;18.50;99.90;;;;;;4954262;29;20086;-78
2022/04/14 09:48:58;;;;;;;17.55;13.40;;;18.60;99.90;;;;;;4937463;29;20078;-79
2022/04/14 09:51:26;;;;;;;19.42;14.60;;;19.10;99.90;;;;;;4951439;29;20078;-78
2022/04/14 09:54:04;;;;;;;18.40;14.10;;;19.20;99.90;;;;;;4948072;29;20031;-79
2022/04/14 09:56:44;;;;;;;19.63;13.10;;;19.00;99.90;;;;;;4950668;29;20028;-78
2022/04/14 09:59:11;;;;;;;14.50;12.63;;;19.00;99.90;;;;;;4945451;29;20340;-78
2022/04/14 10:01:37;;;;;;;14.90;13.52;;;19.30;99.90;;;;;;4925953;29;20545;-78
2022/04/14 10:04:05;;;;;;;16.83;14.95;;;19.60;99.90;;;;;;4934399;29;20027;-78
2022/04/14 10:06:31;;;;;;;25.00;15.93;;;19.20;99.90;;;;;;4930786;29;20134;-78
2022/04/14 10:08:57;;;;;;;21.88;14.68;;;19.10;99.90;;;;;;4964361;28;20517;-78
2022/04/14 10:11:29;;;;;;;16.02;13.18;;;19.40;99.90;;;;;;4951970;29;20020;-78
2022/04/14 10:14:12;;;;;;;18.17;13.85;;;19.80;99.90;;;;;;4962985;28;20026;-78
2022/04/14 10:16:41;;;;;;;14.50;12.73;;;20.00;99.90;;;;;;4957551;28;20038;-78
2022/04/14 10:19:09;;;;;;;17.83;14.40;;;20.30;99.90;;;;;;4933254;29;20043;-77
2022/04/14 10:21:37;;;;;;;16.73;13.88;;;19.80;99.90;;;;;;4932821;29;20019;-78
2022/04/14 10:24:03;;;;;;;16.15;13.68;;;19.60;99.90;;;;;;4932387;29;20030;-78
2022/04/14 10:26:29;;;;;;;19.92;12.50;;;19.50;99.90;;;;;;4952006;29;20027;-78
2022/04/14 10:28:56;;;;;;;19.98;13.82;;;19.90;99.90;;;;;;4949687;29;20107;-78
2022/04/14 10:31:21;;;;;;;15.55;13.23;;;20.10;99.90;;;;;;4934427;29;20399;-78
2022/04/14 10:33:48;;;;;;;14.43;12.95;;;19.50;99.90;;;;;;4939687;29;20025;-80
2022/04/14 10:36:14;;;;;;;13.85;12.25;;;19.40;99.90;;;;;;4956841;28;20429;-79
2022/04/14 10:38:43;;;;;;;17.35;13.15;;;19.40;99.90;;;;;;4949049;29;20060;-77
2022/04/14 10:41:18;;;;;;;18.65;12.38;;;19.40;99.90;;;;;;4947904;29;20035;-79
2022/04/14 10:43:45;;;;;;;16.10;12.30;;;19.70;99.90;;;;;;4934608;29;20027;-78
2022/04/14 10:46:14;;;;;;;14.65;12.00;;;19.90;99.90;;;;;;4946887;29;20434;-78
2022/04/14 10:48:41;;;;;;;19.38;13.75;;;20.20;99.90;;;;;;4934481;29;20031;-78
2022/04/14 10:51:17;;;;;;;16.27;12.18;;;20.10;99.90;;;;;;4932376;29;20028;-78
2022/04/14 10:54:04;;;;;;;18.30;12.30;;;19.90;99.90;;;;;;4955609;29;20401;-77
2022/04/14 10:56:44;;;;;;;17.00;12.70;;;20.10;99.90;;;;;;4932357;29;20059;-78
2022/04/14 10:59:17;;;;;;;15.57;11.68;;;20.10;99.90;;;;;;4954694;29;20516;-79
2022/04/14 11:01:50;;;;;;;18.60;12.27;;;20.30;99.90;;;;;;4951307;29;20043;-78
2022/04/14 11:04:24;;;;;;;16.48;13.23;;;20.40;99.90;;;;;;4953972;29;20032;-78
2022/04/14 11:06:52;;;;;;;17.75;11.70;;;20.90;99.90;;;;;;4952556;29;20026;-78
2022/04/14 11:12:07;;;;;;;14.70;12.52;;;20.70;99.90;;;;;;4979232;28;20045;-79
2022/04/14 11:14:44;;;;;;;14.38;12.93;;;20.40;99.90;;;;;;4970448;29;20028;-78
2022/04/14 11:17:37;;;;;;;16.25;13.98;;;20.40;99.90;;;;;;4974847;28;20036;-78
2022/04/14 11:20:37;;;;;;;14.27;12.55;;;20.50;99.90;;;;;;4967834;28;20036;-79
2022/04/14 11:23:18;;;;;;;16.08;12.98;;;20.50;99.90;;;;;;4960704;28;20026;-78
2022/04/14 11:26:00;;;;;;;13.35;11.25;;;20.90;99.90;;;;;;4955509;28;20018;-78
2022/04/14 11:28:33;;;;;;;21.10;11.90;;;21.00;99.90;;;;;;4972745;28;20034;-78
2022/04/14 11:31:24;;;;;;;15.05;13.50;;;21.10;99.90;;;;;;4977859;28;20016;-79
2022/04/14 11:33:51;;;;;;;15.45;12.50;;;21.30;99.90;;;;;;4970044;28;20081;-76
2022/04/14 11:36:16;;;;;;;16.42;12.90;;;21.40;99.90;;;;;;4942525;29;20078;-77
2022/04/14 11:38:57;;;;;;;19.10;13.35;;;21.10;99.90;;;;;;4958365;29;20401;-77
2022/04/14 11:41:40;;;;;;;15.27;13.25;;;20.90;99.90;;;;;;4954917;29;20020;-78
2022/04/14 11:44:10;;;;;;;16.67;13.40;;;21.50;99.90;;;;;;4969839;29;20019;-77
2022/04/14 11:46:42;;;;;;;25.13;11.88;;;21.10;99.90;;;;;;4978151;28;20011;-79
2022/04/14 11:49:09;;;;;;;16.02;12.20;;;21.10;99.90;;;;;;4977385;28;20034;-78
2022/04/14 11:52:02;;;;;;;14.35;13.02;;;21.20;99.90;;;;;;4974925;28;20031;-79
2022/04/14 11:54:31;;;;;;;18.20;14.30;;;21.30;99.90;;;;;;4965364;28;20042;-78
2022/04/14 11:56:58;;;;;;;16.15;12.35;;;21.20;99.90;;;;;;4978221;28;20035;-79
2022/04/14 11:59:37;;;;;;;16.15;13.15;;;21.30;99.90;;;;;;4958831;29;20030;-77
2022/04/14 12:02:15;;;;;;;15.20;12.43;;;21.70;99.90;;;;;;4962766;29;20024;-79
2022/04/14 12:04:44;;;;;;;16.85;11.90;;;21.90;99.90;;;;;;4955639;29;20496;-78
2022/04/14 12:07:10;;;;;;;13.77;12.32;;;21.90;99.90;;;;;;4952664;29;20034;-78
2022/04/14 12:09:37;;;;;;;18.55;14.60;;;21.60;99.90;;;;;;4955661;29;20028;-76
2022/04/14 12:12:19;;;;;;;18.60;12.68;;;21.60;99.90;;;;;;4938652;29;20023;-77
2022/04/14 12:14:50;;;;;;;18.05;13.50;;;21.60;99.90;;;;;;4935669;29;20464;-77
2022/04/14 12:17:16;;;;;;;;;;;21.40;99.90;;;;;;4954661;29;20686;-79
2022/04/14 12:19:52;;;;;;;18.27;13.13;;;21.40;99.90;;;;;;4947435;29;19917;-78
2022/04/14 12:22:19;;;;;;;16.25;13.35;;;21.10;99.90;;;;;;4952062;29;20034;-78
2022/04/14 12:24:53;;;;;;;16.35;13.27;;;20.90;99.90;;;;;;4934636;29;20024;-78
2022/04/14 12:27:37;;;;;;;16.25;12.20;;;20.80;99.90;;;;;;4933547;29;20087;-77
2022/04/14 12:30:09;;;;;;;20.13;13.65;;;21.40;99.90;;;;;;4940541;28;20505;-77
2022/04/14 12:32:34;;;;;;;17.95;14.57;;;21.20;99.90;;;;;;4934808;29;20118;-79
2022/04/14 12:35:00;;;;;;;16.10;13.10;;;21.00;99.90;;;;;;4942781;29;20101;-77
2022/04/14 12:37:43;;;;;;;15.68;13.40;;;20.90;99.90;;;;;;4953778;29;20031;-78
2022/04/14 12:40:21;;;;;;;15.30;13.70;;;21.10;99.90;;;;;;4933383;29;20030;-78
2022/04/14 12:42:47;;;;;;;14.88;13.30;;;21.00;99.90;;;;;;4957358;29;20052;-78